createdAt,value
2018-09-03T00:00:21.229Z,98202.30
2018-09-03T00:02:51.689Z,98206.94
2018-09-03T00:05:20.598Z,98202.86
2018-09-03T00:07:49.514Z,98202.86
2018-09-03T00:10:18.690Z,98197.08
2018-09-03T00:12:47.618Z,98190.27
2018-09-03T00:15:16.695Z,98195.23
2018-09-03T00:17:45.543Z,98191.16
2018-09-03T00:20:14.744Z,98195.16
2018-09-03T00:22:43.873Z,98192.98
2018-09-03T00:25:12.735Z,98195.71
2018-09-03T00:27:43.294Z,98194.60
2018-09-03T00:30:12.523Z,98204.14
2018-09-03T00:32:46.736Z,98201.71
2018-09-03T00:35:20.825Z,98216.61
2018-09-03T00:37:55.017Z,98228.87
2018-09-03T00:40:29.077Z,98233.43
2018-09-03T00:43:03.184Z,98238.66
2018-09-03T00:45:37.098Z,98232.81
2018-09-03T00:48:07.422Z,98235.62
2018-09-03T00:50:36.185Z,98231.31
2018-09-03T00:53:05.434Z,98240.59
2018-09-03T00:55:34.155Z,98245.16
2018-09-03T00:58:03.868Z,98245.70
2018-09-03T01:00:32.780Z,98256.30
2018-09-03T01:03:01.846Z,98257.08
2018-09-03T01:05:31.079Z,98257.88
2018-09-03T01:07:59.841Z,98255.63
2018-09-03T01:10:28.619Z,98261.89
2018-09-03T01:12:57.549Z,98263.00
2018-09-03T01:15:29.713Z,98253.80
2018-09-03T01:18:01.148Z,98254.61
2018-09-03T01:20:30.173Z,98253.58
2018-09-03T01:22:59.439Z,98246.44
2018-09-03T01:25:28.274Z,98245.88
2018-09-03T01:27:58.633Z,98237.93
2018-09-03T01:30:28.935Z,98235.20
2018-09-03T01:32:57.920Z,98233.63
2018-09-03T01:35:26.548Z,98233.15
2018-09-03T01:37:55.376Z,98217.77
2018-09-03T01:40:24.019Z,98215.61
2018-09-03T01:42:53.318Z,98215.61
2018-09-03T01:45:22.672Z,98213.36
2018-09-03T01:47:52.483Z,98200.77
2018-09-03T01:50:21.683Z,98207.27
2018-09-03T01:52:50.946Z,98214.30
2018-09-03T01:55:19.772Z,98206.39
2018-09-03T01:57:48.464Z,98207.75
2018-09-03T02:00:17.698Z,98205.02
2018-09-03T02:02:47.095Z,98209.41
2018-09-03T02:05:16.480Z,98203.57
2018-09-03T02:07:45.315Z,98208.33
2018-09-03T02:10:14.119Z,98209.77
2018-09-03T02:12:42.875Z,98199.51
2018-09-03T02:15:11.671Z,98195.03
2018-09-03T02:17:41.283Z,98195.70
2018-09-03T02:20:10.114Z,98190.00
2018-09-03T02:22:39.650Z,98191.61
2018-09-03T02:25:08.558Z,98186.39
2018-09-03T02:27:38.047Z,98182.08
2018-09-03T02:30:07.096Z,98176.08
2018-09-03T02:32:36.630Z,98181.41
2018-09-03T02:35:05.458Z,98181.59
2018-09-03T02:37:34.971Z,98182.62
2018-09-03T02:40:05.140Z,98182.95
2018-09-03T02:42:33.901Z,98175.59
2018-09-03T02:45:02.719Z,98174.53
2018-09-03T02:47:31.778Z,98171.25
2018-09-03T02:50:01.566Z,98170.22
2018-09-03T02:52:30.387Z,98175.67
2018-09-03T02:54:59.833Z,98175.34
2018-09-03T02:57:29.982Z,98169.81
2018-09-03T03:00:00.054Z,98168.11
2018-09-03T03:02:29.179Z,98171.64
2018-09-03T03:04:58.060Z,98178.12
2018-09-03T03:07:26.954Z,98173.81
2018-09-03T03:09:55.824Z,98171.31
2018-09-03T03:12:25.799Z,98166.67
2018-09-03T03:14:56.470Z,98161.78
2018-09-03T03:17:25.524Z,98166.75
2018-09-03T03:19:54.388Z,98153.94
2018-09-03T03:22:23.953Z,98157.30
2018-09-03T03:24:53.520Z,98155.72
2018-09-03T03:27:22.573Z,98159.55
2018-09-03T03:29:51.415Z,98157.41
2018-09-03T03:32:20.494Z,98155.80
2018-09-03T03:34:51.016Z,98147.38
2018-09-03T03:37:20.936Z,98149.80
2018-09-03T03:39:49.829Z,98152.44
2018-09-03T03:42:18.796Z,98147.69
2018-09-03T03:44:48.369Z,98143.38
2018-09-03T03:47:17.180Z,98129.30
2018-09-03T03:49:48.230Z,98115.68
2018-09-03T03:52:17.655Z,98124.63
2018-09-03T03:54:46.769Z,98129.94
2018-09-03T03:57:15.473Z,98141.30
2018-09-03T03:59:44.271Z,98138.58
2018-09-03T04:02:13.406Z,98136.88
2018-09-03T04:04:42.623Z,98131.69
2018-09-03T04:07:11.429Z,98133.27
2018-09-03T04:09:40.157Z,98130.23
2018-09-03T04:12:09.180Z,98123.44
2018-09-03T04:14:38.605Z,98125.60
2018-09-03T04:17:07.939Z,98132.97
2018-09-03T04:19:36.906Z,98127.82
2018-09-03T04:22:05.957Z,98132.49
2018-09-03T04:24:34.659Z,98132.16
2018-09-03T04:27:03.656Z,98135.91
2018-09-03T04:29:33.071Z,98142.72
2018-09-03T04:32:04.886Z,98145.44
2018-09-03T04:34:34.419Z,98146.80
2018-09-03T04:37:03.488Z,98141.60
2018-09-03T04:39:32.556Z,98142.41
2018-09-03T04:42:01.186Z,98134.24
2018-09-03T04:44:30.796Z,98138.33
2018-09-03T04:47:01.636Z,98133.44
2018-09-03T04:49:30.706Z,98138.41
2018-09-03T04:52:00.852Z,98139.22
2018-09-03T04:54:29.826Z,98138.08
2018-09-03T04:56:58.540Z,98139.99
2018-09-03T04:59:27.537Z,98138.41
2018-09-03T05:01:57.008Z,98131.05
2018-09-03T05:04:25.645Z,98134.07
2018-09-03T05:06:55.195Z,98130.23
2018-09-03T05:09:24.415Z,98129.09
2018-09-03T05:11:53.292Z,98134.55
2018-09-03T05:14:22.725Z,98136.38
2018-09-03T05:16:52.271Z,98131.66
2018-09-03T05:19:21.680Z,98137.23
2018-09-03T05:21:50.604Z,98140.21
2018-09-03T05:24:19.455Z,98137.62
2018-09-03T05:26:49.114Z,98137.54
2018-09-03T05:29:18.332Z,98138.02
2018-09-03T05:31:47.388Z,98142.02
2018-09-03T05:34:17.191Z,98141.37
2018-09-03T05:36:46.425Z,98144.09
2018-09-03T05:39:15.139Z,98139.59
2018-09-03T05:41:44.365Z,98135.63
2018-09-03T05:44:13.338Z,98142.83
2018-09-03T05:46:42.875Z,98141.63
2018-09-03T05:49:11.595Z,98151.94
2018-09-03T05:51:40.434Z,98157.08
2018-09-03T05:54:09.442Z,98152.41
2018-09-03T05:56:38.380Z,98147.43
2018-09-03T05:59:07.527Z,98153.59
2018-09-03T06:01:36.385Z,98149.98
2018-09-03T06:04:06.886Z,98141.96
2018-09-03T06:06:36.237Z,98146.27
2018-09-03T06:09:06.770Z,98150.73
2018-09-03T06:11:35.691Z,98147.31
2018-09-03T06:14:04.441Z,98150.38
2018-09-03T06:16:33.396Z,98154.54
2018-09-03T06:19:02.265Z,98152.75
2018-09-03T06:21:31.041Z,98158.95
2018-09-03T06:23:59.742Z,98151.02
2018-09-03T06:26:30.010Z,98157.22
2018-09-03T06:28:59.582Z,98154.87
2018-09-03T06:31:28.774Z,98155.73
2018-09-03T06:33:58.525Z,98152.64
2018-09-03T06:36:27.216Z,98154.30
2018-09-03T06:38:57.006Z,98149.56
2018-09-03T06:41:26.575Z,98150.03
2018-09-03T06:43:56.189Z,98150.23
2018-09-03T06:46:25.107Z,98146.59
2018-09-03T06:48:53.925Z,98153.77
2018-09-03T06:51:23.465Z,98154.80
2018-09-03T06:53:52.839Z,98144.66
2018-09-03T06:56:22.066Z,98147.65
2018-09-03T06:58:51.474Z,98149.20
2018-09-03T07:01:20.494Z,98156.49
2018-09-03T07:03:49.621Z,98151.23
2018-09-03T07:06:18.995Z,98153.41
2018-09-03T07:08:48.176Z,98155.24
2018-09-03T07:11:17.452Z,98156.25
2018-09-03T07:13:46.531Z,98151.40
2018-09-03T07:16:15.924Z,98142.14
2018-09-03T07:18:45.018Z,98147.85
2018-09-03T07:21:14.162Z,98143.56
2018-09-03T07:23:42.987Z,98142.66
2018-09-03T07:26:12.517Z,98141.75
2018-09-03T07:28:44.157Z,98138.46
2018-09-03T07:31:13.989Z,98142.35
2018-09-03T07:33:42.825Z,98142.25
2018-09-03T07:36:13.524Z,98139.52
2018-09-03T07:38:42.522Z,98146.72
2018-09-03T07:41:11.817Z,98145.35
2018-09-03T07:43:41.081Z,98143.64
2018-09-03T07:46:10.801Z,98143.86
2018-09-03T07:48:39.558Z,98139.43
2018-09-03T07:51:08.853Z,98144.80
2018-09-03T07:53:37.742Z,98144.79
2018-09-03T07:56:08.354Z,98144.33
2018-09-03T07:58:37.425Z,98142.41
2018-09-03T08:01:06.608Z,98147.07
2018-09-03T08:03:36.141Z,98146.30
2018-09-03T08:06:05.206Z,98149.44
2018-09-03T08:08:33.887Z,98144.30
2018-09-03T08:11:03.543Z,98154.13
2018-09-03T08:13:41.037Z,98153.77
2018-09-03T08:16:10.642Z,98150.69
2018-09-03T08:18:40.193Z,98162.75
2018-09-03T08:21:09.169Z,98158.75
2018-09-03T08:23:38.389Z,98161.33
2018-09-03T08:26:07.637Z,98157.48
2018-09-03T08:28:36.903Z,98161.33
2018-09-03T08:31:06.210Z,98153.38
2018-09-03T08:33:35.078Z,98152.93
2018-09-03T08:36:03.953Z,98155.00
2018-09-03T08:38:32.779Z,98154.69
2018-09-03T08:41:02.446Z,98150.81
2018-09-03T08:43:31.456Z,98150.73
2018-09-03T08:46:00.416Z,98146.27
2018-09-03T08:48:29.695Z,98143.89
2018-09-03T08:50:58.542Z,98148.19
2018-09-03T08:53:28.131Z,98146.86
2018-09-03T08:55:56.886Z,98146.36
2018-09-03T08:58:25.815Z,98150.61
2018-09-03T09:00:54.847Z,98149.77
2018-09-03T09:03:28.837Z,98144.97
2018-09-03T09:05:57.810Z,98147.42
2018-09-03T09:08:26.751Z,98142.88
2018-09-03T09:10:55.758Z,98145.97
2018-09-03T09:13:24.451Z,98142.07
2018-09-03T09:15:53.356Z,98139.88
2018-09-03T09:18:22.306Z,98139.98
2018-09-03T09:20:52.021Z,98147.28
2018-09-03T09:23:20.837Z,98137.42
2018-09-03T09:25:49.801Z,98140.44
2018-09-03T09:28:19.052Z,98143.27
2018-09-03T09:30:48.478Z,98136.86
2018-09-03T09:33:18.192Z,98133.05
2018-09-03T09:35:47.822Z,98141.42
2018-09-03T09:38:17.152Z,98137.06
2018-09-03T09:40:46.102Z,98132.00
2018-09-03T09:43:15.613Z,98134.45
2018-09-03T09:45:44.618Z,98128.48
2018-09-03T09:48:13.514Z,98126.63
2018-09-03T09:50:43.178Z,98128.97
2018-09-03T09:53:12.339Z,98127.20
2018-09-03T09:55:41.467Z,98130.34
2018-09-03T09:58:10.752Z,98130.11
2018-09-03T10:00:44.798Z,98130.25
2018-09-03T10:03:13.692Z,98124.13
2018-09-03T10:05:43.607Z,98124.81
2018-09-03T10:08:13.227Z,98118.44
2018-09-03T10:10:41.902Z,98121.45
2018-09-03T10:13:10.934Z,98117.34
2018-09-03T10:15:40.160Z,98113.91
2018-09-03T10:18:08.977Z,98115.82
2018-09-03T10:20:37.812Z,98119.59
2018-09-03T10:23:06.867Z,98116.86
2018-09-03T10:25:36.392Z,98119.39
2018-09-03T10:28:06.238Z,98122.58
2018-09-03T10:30:35.197Z,98122.78
2018-09-03T10:33:04.953Z,98122.67
2018-09-03T10:35:33.908Z,98124.90
2018-09-03T10:38:03.072Z,98124.66
2018-09-03T10:40:32.224Z,98129.22
2018-09-03T10:43:01.683Z,98128.41
2018-09-03T10:45:30.519Z,98131.31
2018-09-03T10:47:59.252Z,98129.50
2018-09-03T10:50:28.364Z,98135.09
2018-09-03T10:52:57.535Z,98129.17
2018-09-03T10:55:26.777Z,98127.55
2018-09-03T10:57:55.853Z,98124.44
2018-09-03T11:00:25.302Z,98124.61
2018-09-03T11:02:54.602Z,98123.10
2018-09-03T11:05:23.528Z,98121.31
2018-09-03T11:07:52.163Z,98121.11
2018-09-03T11:10:20.832Z,98119.69
2018-09-03T11:12:49.667Z,98120.95
2018-09-03T11:15:19.862Z,98120.41
2018-09-03T11:17:49.766Z,98121.78
2018-09-03T11:20:24.076Z,98118.66
2018-09-03T11:22:53.046Z,98120.25
2018-09-03T11:25:22.919Z,98124.02
2018-09-03T11:27:53.658Z,98117.52
2018-09-03T11:30:23.088Z,98116.00
2018-09-03T11:33:03.598Z,98112.77
2018-09-03T11:35:32.434Z,98116.94
2018-09-03T11:38:01.121Z,98117.66
2018-09-03T11:40:30.321Z,98114.80
2018-09-03T11:42:59.453Z,98120.86
2018-09-03T11:45:28.848Z,98116.45
2018-09-03T11:47:57.619Z,98120.41
2018-09-03T11:50:27.133Z,98117.71
2018-09-03T11:52:58.086Z,98120.10
2018-09-03T11:55:27.054Z,98121.61
2018-09-03T11:57:55.924Z,98113.75
2018-09-03T12:00:27.729Z,98114.95
2018-09-03T12:02:57.504Z,98113.95
2018-09-03T12:05:27.761Z,98107.58
2018-09-03T12:07:56.674Z,98112.39
2018-09-03T12:10:25.448Z,98111.73
2018-09-03T12:12:55.064Z,98113.07
2018-09-03T12:15:33.133Z,98109.66
2018-09-03T12:18:02.325Z,98106.19
2018-09-03T12:20:31.421Z,98108.37
2018-09-03T12:23:01.028Z,98101.82
2018-09-03T12:25:30.282Z,98099.62
2018-09-03T12:27:59.371Z,98092.97
2018-09-03T12:30:29.009Z,98096.58
2018-09-03T12:32:58.510Z,98096.16
2018-09-03T12:35:27.412Z,98089.92
2018-09-03T12:37:56.217Z,98092.41
2018-09-03T12:40:25.185Z,98094.05
2018-09-03T12:42:53.949Z,98098.86
2018-09-03T12:45:29.039Z,98096.80
2018-09-03T12:47:58.087Z,98095.59
2018-09-03T12:50:28.083Z,98108.40
2018-09-03T12:52:57.267Z,98102.34
2018-09-03T12:55:27.783Z,98103.75
2018-09-03T12:57:56.917Z,98104.14
2018-09-03T13:00:25.859Z,98108.43
2018-09-03T13:02:54.767Z,98110.39
2018-09-03T13:05:23.523Z,98101.23
2018-09-03T13:07:52.497Z,98107.55
2018-09-03T13:10:22.761Z,98103.75
2018-09-03T13:12:52.002Z,98100.44
2018-09-03T13:15:20.823Z,98090.38
2018-09-03T13:17:49.589Z,98088.80
2018-09-03T13:20:18.327Z,98084.02
2018-09-03T13:22:47.104Z,98094.16
2018-09-03T13:25:17.176Z,98084.53
2018-09-03T13:27:46.346Z,98070.07
2018-09-03T13:30:15.618Z,98065.23
2018-09-03T13:32:44.821Z,98064.77
2018-09-03T13:35:13.656Z,98061.59
2018-09-03T13:37:43.114Z,98066.74
2018-09-03T13:40:12.395Z,98064.76
2018-09-03T13:42:42.004Z,98066.74
2018-09-03T13:45:11.516Z,98058.39
2018-09-03T13:47:41.094Z,98059.42
2018-09-03T13:50:10.726Z,98049.67
2018-09-03T13:52:39.643Z,98053.72
2018-09-03T13:55:09.063Z,98055.36
2018-09-03T13:57:38.100Z,98057.18
2018-09-03T14:00:09.092Z,98052.02
2018-09-03T14:02:38.292Z,98052.11
2018-09-03T14:05:08.020Z,98048.23
2018-09-03T14:07:36.967Z,98046.84
2018-09-03T14:10:06.697Z,98053.27
2018-09-03T14:12:35.471Z,98049.03
2018-09-03T14:15:04.598Z,98050.64
2018-09-03T14:17:33.845Z,98047.88
2018-09-03T14:20:03.310Z,98049.47
2018-09-03T14:22:32.862Z,98042.97
2018-09-03T14:25:01.754Z,98040.21
2018-09-03T14:27:30.650Z,98043.55
2018-09-03T14:30:00.158Z,98040.02
2018-09-03T14:32:29.161Z,98041.44
2018-09-03T14:34:58.364Z,98042.46
2018-09-03T14:37:27.528Z,98031.97
2018-09-03T14:39:57.098Z,98041.30
2018-09-03T14:42:26.017Z,98038.08
2018-09-03T14:44:54.810Z,98037.23
2018-09-03T14:47:25.028Z,98035.81
2018-09-03T14:49:53.849Z,98026.40
2018-09-03T14:52:22.997Z,98032.64
2018-09-03T14:54:51.937Z,98030.06
2018-09-03T14:57:20.916Z,98024.48
2018-09-03T14:59:50.549Z,98026.39
2018-09-03T15:02:19.805Z,98027.59
2018-09-03T15:04:48.720Z,98022.98
2018-09-03T15:07:17.504Z,98025.44
2018-09-03T15:09:46.473Z,98023.47
2018-09-03T15:12:15.468Z,98028.03
2018-09-03T15:14:44.182Z,98029.58
2018-09-03T15:17:13.122Z,98026.50
2018-09-03T15:19:42.700Z,98024.53
2018-09-03T15:22:11.559Z,98030.02
2018-09-03T15:24:40.357Z,98034.97
2018-09-03T15:27:09.072Z,98026.31
2018-09-03T15:29:37.946Z,98023.75
2018-09-03T15:32:06.988Z,98022.52
2018-09-03T15:34:35.765Z,98020.64
2018-09-03T15:37:04.517Z,98020.64
2018-09-03T15:39:36.229Z,98017.00
2018-09-03T15:42:07.456Z,98026.36
2018-09-03T15:44:38.083Z,98020.34
2018-09-03T15:47:08.249Z,98021.42
2018-09-03T15:49:37.070Z,98018.53
2018-09-03T15:52:06.217Z,98022.96
2018-09-03T15:54:35.265Z,98022.42
2018-09-03T15:57:04.327Z,98020.47
2018-09-03T15:59:33.281Z,98023.73
2018-09-03T16:02:02.232Z,98019.67
2018-09-03T16:04:31.208Z,98017.27
2018-09-03T16:07:00.408Z,98020.80
2018-09-03T16:09:29.263Z,98016.66
2018-09-03T16:11:58.851Z,98018.95
2018-09-03T16:14:28.208Z,98023.20
2018-09-03T16:16:57.367Z,98016.10
2018-09-03T16:19:26.509Z,98019.27
2018-09-03T16:21:55.579Z,98017.04
2018-09-03T16:24:24.311Z,98016.12
2018-09-03T16:26:53.297Z,98014.94
2018-09-03T16:29:22.670Z,98013.08
2018-09-03T16:31:52.413Z,98010.53
2018-09-03T16:34:21.305Z,98014.65
2018-09-03T16:36:50.396Z,98022.54
2018-09-03T16:39:19.358Z,98022.70
2018-09-03T16:41:49.562Z,98025.23
2018-09-03T16:44:18.679Z,98016.75
2018-09-03T16:46:47.635Z,98016.52
2018-09-03T16:49:16.424Z,98010.45
2018-09-03T16:51:45.494Z,98008.34
2018-09-03T16:54:14.568Z,98008.50
2018-09-03T16:56:44.343Z,98008.17
2018-09-03T16:59:14.027Z,98018.92
2018-09-03T17:01:43.013Z,98020.39
2018-09-03T17:04:12.727Z,98021.59
2018-09-03T17:06:41.701Z,98018.27
2018-09-03T17:09:11.192Z,98021.61
2018-09-03T17:11:41.263Z,98018.00
2018-09-03T17:14:10.400Z,98020.67
2018-09-03T17:16:39.754Z,98020.75
2018-09-03T17:19:09.520Z,98019.88
2018-09-03T17:21:40.196Z,98023.68
2018-09-03T17:24:09.405Z,98027.59
2018-09-03T17:26:38.561Z,98025.82
2018-09-03T17:29:08.456Z,98039.24
2018-09-03T17:31:37.893Z,98037.36
2018-09-03T17:34:07.770Z,98025.20
2018-09-03T17:36:37.658Z,98030.12
2018-09-03T17:39:07.953Z,98024.58
2018-09-03T17:41:36.898Z,98031.03
2018-09-03T17:44:05.704Z,98032.23
2018-09-03T17:46:35.245Z,98027.59
2018-09-03T17:49:04.742Z,98029.00
2018-09-03T17:51:33.600Z,98029.18
2018-09-03T17:54:02.611Z,98028.55
2018-09-03T17:56:31.348Z,98028.69
2018-09-03T17:59:00.468Z,98029.00
2018-09-03T18:01:30.498Z,98034.37
2018-09-03T18:03:59.744Z,98037.47
2018-09-03T18:06:28.972Z,98035.89
2018-09-03T18:08:57.830Z,98031.56
2018-09-03T18:11:26.708Z,98035.89
2018-09-03T18:13:55.945Z,98036.01
2018-09-03T18:16:25.974Z,98045.23
2018-09-03T18:18:55.108Z,98038.61
2018-09-03T18:21:24.284Z,98042.95
2018-09-03T18:23:53.666Z,98043.41
2018-09-03T18:26:23.019Z,98042.92
2018-09-03T18:28:51.919Z,98039.48
2018-09-03T18:31:20.911Z,98043.19
2018-09-03T18:33:51.349Z,98045.76
2018-09-03T18:36:20.929Z,98050.04
2018-09-03T18:38:50.216Z,98052.55
2018-09-03T18:41:19.465Z,98051.27
2018-09-03T18:43:49.935Z,98050.89
2018-09-03T18:46:18.921Z,98055.72
2018-09-03T18:48:48.078Z,98062.38
2018-09-03T18:51:17.174Z,98065.98
2018-09-03T18:53:46.223Z,98066.89
2018-09-03T18:56:15.479Z,98068.06
2018-09-03T18:58:44.910Z,98070.98
2018-09-03T19:01:15.065Z,98079.31
2018-09-03T19:03:44.024Z,98076.03
2018-09-03T19:06:14.029Z,98077.58
2018-09-03T19:08:44.141Z,98072.69
2018-09-03T19:11:14.109Z,98080.27
2018-09-03T19:13:43.018Z,98072.27
2018-09-03T19:16:12.095Z,98076.83
2018-09-03T19:18:41.463Z,98076.73
2018-09-03T19:21:10.826Z,98075.33
2018-09-03T19:23:41.099Z,98075.14
2018-09-03T19:26:10.144Z,98081.14
2018-09-03T19:28:39.596Z,98082.68
2018-09-03T19:31:09.636Z,98083.58
2018-09-03T19:33:39.817Z,98087.61
2018-09-03T19:36:09.802Z,98080.08
2018-09-03T19:38:39.161Z,98077.70
2018-09-03T19:41:08.869Z,98076.75
2018-09-03T19:43:37.818Z,98077.17
2018-09-03T19:46:06.726Z,98086.07
2018-09-03T19:48:35.852Z,98085.27
2018-09-03T19:51:06.109Z,98086.27
2018-09-03T19:53:36.937Z,98088.98
2018-09-03T19:56:06.078Z,98084.91
2018-09-03T19:58:36.804Z,98082.19
2018-09-03T20:01:07.114Z,98089.09
2018-09-03T20:03:36.114Z,98085.66
2018-09-03T20:06:05.022Z,98089.59
2018-09-03T20:08:34.344Z,98084.04
2018-09-03T20:11:04.055Z,98080.59
2018-09-03T20:13:34.195Z,98078.59
2018-09-03T20:16:04.426Z,98085.34
2018-09-03T20:18:33.460Z,98082.14
2018-09-03T20:21:02.794Z,98085.67
2018-09-03T20:23:32.211Z,98080.95
2018-09-03T20:26:01.154Z,98081.09
2018-09-03T20:28:31.218Z,98081.43
2018-09-03T20:31:00.618Z,98083.56
2018-09-03T20:33:29.357Z,98080.46
2018-09-03T20:35:59.091Z,98089.57
2018-09-03T20:38:28.135Z,98082.34
2018-09-03T20:40:57.471Z,98084.09
2018-09-03T20:43:27.485Z,98090.82
2018-09-03T20:45:57.409Z,98099.45
2018-09-03T20:48:27.079Z,98098.09
2018-09-03T20:50:57.087Z,98098.73
2018-09-03T20:53:25.738Z,98101.13
2018-09-03T20:55:56.349Z,98100.34
2018-09-03T20:58:25.957Z,98098.52
2018-09-03T21:00:55.808Z,98098.41
2018-09-03T21:03:24.515Z,98100.57
2018-09-03T21:05:53.520Z,98087.93
2018-09-03T21:08:22.756Z,98089.48
2018-09-03T21:10:51.593Z,98088.52
2018-09-03T21:13:20.409Z,98088.29
2018-09-03T21:15:49.411Z,98085.66
2018-09-03T21:18:18.274Z,98084.16
2018-09-03T21:20:46.998Z,98082.95
2018-09-03T21:23:16.694Z,98081.20
2018-09-03T21:25:47.126Z,98081.84
2018-09-03T21:28:16.209Z,98085.14
2018-09-03T21:30:45.095Z,98089.05
2018-09-03T21:33:13.873Z,98082.23
2018-09-03T21:35:43.180Z,98077.14
2018-09-03T21:38:14.514Z,98084.35
2018-09-03T21:40:43.618Z,98079.62
2018-09-03T21:43:13.005Z,98083.14
2018-09-03T21:45:42.101Z,98080.58
2018-09-03T21:48:11.272Z,98080.66
2018-09-03T21:50:40.087Z,98080.84
2018-09-03T21:53:09.614Z,98079.00
2018-09-03T21:55:38.621Z,98083.78
2018-09-03T21:58:08.165Z,98081.22
2018-09-03T22:00:37.224Z,98077.24
2018-09-03T22:03:07.360Z,98076.11
2018-09-03T22:05:37.084Z,98073.39
2018-09-03T22:08:06.377Z,98075.95
2018-09-03T22:10:35.234Z,98074.97
2018-09-03T22:13:04.132Z,98082.56
2018-09-03T22:15:32.969Z,98082.88
2018-09-03T22:18:03.800Z,98071.20
2018-09-03T22:20:32.906Z,98072.64
2018-09-03T22:23:02.341Z,98073.43
2018-09-03T22:25:31.533Z,98075.73
2018-09-03T22:28:00.421Z,98071.51
2018-09-03T22:30:29.572Z,98069.34
2018-09-03T22:32:58.572Z,98063.24
2018-09-03T22:35:27.842Z,98063.24
2018-09-03T22:37:56.687Z,98065.25
2018-09-03T22:40:25.545Z,98061.75
2018-09-03T22:42:55.178Z,98063.63
2018-09-03T22:45:24.282Z,98062.18
2018-09-03T22:47:53.521Z,98058.91
2018-09-03T22:50:23.080Z,98059.05
2018-09-03T22:52:52.546Z,98065.80
2018-09-03T22:55:26.536Z,98063.16
2018-09-03T22:57:55.332Z,98064.34
2018-09-03T23:00:25.740Z,98069.29
2018-09-03T23:02:54.630Z,98066.38
2018-09-03T23:05:23.603Z,98077.30
2018-09-03T23:07:53.127Z,98072.55
2018-09-03T23:10:21.800Z,98073.09
2018-09-03T23:12:50.641Z,98075.66
2018-09-03T23:15:19.851Z,98081.69
2018-09-03T23:17:49.021Z,98068.13
2018-09-03T23:20:17.895Z,98055.81
2018-09-03T23:22:47.606Z,98057.23
2018-09-03T23:25:16.408Z,98065.55
2018-09-03T23:27:45.260Z,98071.24
2018-09-03T23:30:14.146Z,98070.69
2018-09-03T23:32:43.033Z,98069.58
2018-09-03T23:35:11.641Z,98067.67
2018-09-03T23:37:41.069Z,98069.41
2018-09-03T23:40:10.723Z,98068.61
2018-09-03T23:42:40.606Z,98070.33
2018-09-03T23:45:09.607Z,98072.83
2018-09-03T23:47:40.430Z,98070.69
2018-09-03T23:50:09.201Z,98065.71
2018-09-03T23:52:38.835Z,98065.28
2018-09-03T23:55:07.535Z,98065.41
2018-09-03T23:57:36.315Z,98064.05
